sensor_id;sensor_type;location;lat;lon;timestamp;P1;durP1;ratioP1;P2;durP2;ratioP2
5981;SDS011;3018;48.730;9.336;2023-08-06T00:01:01;4.43;;;4.07;;
5981;SDS011;3018;48.730;9.336;2023-08-06T00:03:27;4.50;;;4.20;;
5981;SDS011;3018;48.730;9.336;2023-08-06T00:05:54;6.78;;;4.70;;
5981;SDS011;3018;48.730;9.336;2023-08-06T00:08:20;4.32;;;4.03;;
5981;SDS011;3018;48.730;9.336;2023-08-06T00:10:47;5.03;;;4.72;;
5981;SDS011;3018;48.730;9.336;2023-08-06T00:13:14;4.70;;;4.40;;
5981;SDS011;3018;48.730;9.336;2023-08-06T00:15:41;4.60;;;4.30;;
5981;SDS011;3018;48.730;9.336;2023-08-06T00:18:07;4.68;;;4.38;;
5981;SDS011;3018;48.730;9.336;2023-08-06T00:20:33;4.93;;;4.60;;
5981;SDS011;3018;48.730;9.336;2023-08-06T00:22:59;5.05;;;4.50;;
5981;SDS011;3018;48.730;9.336;2023-08-06T00:25:26;4.90;;;4.47;;
5981;SDS011;3018;48.730;9.336;2023-08-06T00:27:52;5.15;;;4.75;;
5981;SDS011;3018;48.730;9.336;2023-08-06T00:30:19;5.43;;;4.78;;
5981;SDS011;3018;48.730;9.336;2023-08-06T00:32:46;5.10;;;4.80;;
5981;SDS011;3018;48.730;9.336;2023-08-06T00:35:12;5.28;;;4.55;;
5981;SDS011;3018;48.730;9.336;2023-08-06T00:37:39;5.03;;;4.72;;
5981;SDS011;3018;48.730;9.336;2023-08-06T00:40:06;5.32;;;4.93;;
5981;SDS011;3018;48.730;9.336;2023-08-06T00:42:32;5.43;;;5.03;;
5981;SDS011;3018;48.730;9.336;2023-08-06T00:44:59;5.13;;;4.75;;
5981;SDS011;3018;48.730;9.336;2023-08-06T00:47:27;4.97;;;4.68;;
5981;SDS011;3018;48.730;9.336;2023-08-06T00:49:53;6.00;;;4.35;;
5981;SDS011;3018;48.730;9.336;2023-08-06T00:52:20;4.85;;;4.45;;
5981;SDS011;3018;48.730;9.336;2023-08-06T00:54:46;5.00;;;4.60;;
5981;SDS011;3018;48.730;9.336;2023-08-06T00:57:12;4.88;;;4.47;;
5981;SDS011;3018;48.730;9.336;2023-08-06T00:59:39;5.35;;;4.95;;
5981;SDS011;3018;48.730;9.336;2023-08-06T01:02:05;5.53;;;5.10;;
5981;SDS011;3018;48.730;9.336;2023-08-06T01:04:33;6.28;;;5.60;;
5981;SDS011;3018;48.730;9.336;2023-08-06T01:07:02;6.10;;;5.60;;
5981;SDS011;3018;48.730;9.336;2023-08-06T01:09:31;6.15;;;5.50;;
5981;SDS011;3018;48.730;9.336;2023-08-06T01:12:00;6.47;;;5.13;;
5981;SDS011;3018;48.730;9.336;2023-08-06T01:14:32;5.70;;;5.30;;
5981;SDS011;3018;48.730;9.336;2023-08-06T01:16:59;6.38;;;5.10;;
5981;SDS011;3018;48.730;9.336;2023-08-06T01:19:27;5.78;;;5.38;;
5981;SDS011;3018;48.730;9.336;2023-08-06T01:21:55;5.57;;;5.15;;
5981;SDS011;3018;48.730;9.336;2023-08-06T01:24:21;5.50;;;5.10;;
5981;SDS011;3018;48.730;9.336;2023-08-06T01:26:48;6.45;;;5.28;;
5981;SDS011;3018;48.730;9.336;2023-08-06T01:29:17;6.25;;;5.75;;
5981;SDS011;3018;48.730;9.336;2023-08-06T01:31:45;6.50;;;6.00;;
5981;SDS011;3018;48.730;9.336;2023-08-06T01:34:13;5.95;;;5.45;;
5981;SDS011;3018;48.730;9.336;2023-08-06T01:36:39;7.75;;;6.65;;
5981;SDS011;3018;48.730;9.336;2023-08-06T01:39:08;8.20;;;5.60;;
5981;SDS011;3018;48.730;9.336;2023-08-06T01:41:34;10.45;;;5.70;;
5981;SDS011;3018;48.730;9.336;2023-08-06T01:44:00;6.47;;;5.60;;
5981;SDS011;3018;48.730;9.336;2023-08-06T01:46:27;6.57;;;6.07;;
5981;SDS011;3018;48.730;9.336;2023-08-06T01:48:53;6.38;;;5.80;;
5981;SDS011;3018;48.730;9.336;2023-08-06T01:51:19;6.47;;;5.50;;
5981;SDS011;3018;48.730;9.336;2023-08-06T01:53:45;6.50;;;5.72;;
5981;SDS011;3018;48.730;9.336;2023-08-06T01:56:13;7.13;;;6.38;;
5981;SDS011;3018;48.730;9.336;2023-08-06T01:58:39;6.43;;;5.82;;
5981;SDS011;3018;48.730;9.336;2023-08-06T02:01:05;6.60;;;6.03;;
5981;SDS011;3018;48.730;9.336;2023-08-06T02:03:32;6.25;;;5.60;;
5981;SDS011;3018;48.730;9.336;2023-08-06T02:05:58;5.78;;;5.38;;
5981;SDS011;3018;48.730;9.336;2023-08-06T02:08:24;5.97;;;5.45;;
5981;SDS011;3018;48.730;9.336;2023-08-06T02:10:51;4.97;;;4.57;;
5981;SDS011;3018;48.730;9.336;2023-08-06T02:13:18;4.45;;;4.10;;
5981;SDS011;3018;48.730;9.336;2023-08-06T02:15:45;4.35;;;4.15;;
5981;SDS011;3018;48.730;9.336;2023-08-06T02:18:12;4.20;;;3.53;;
5981;SDS011;3018;48.730;9.336;2023-08-06T02:20:39;3.38;;;3.08;;
5981;SDS011;3018;48.730;9.336;2023-08-06T02:23:06;3.28;;;3.08;;
5981;SDS011;3018;48.730;9.336;2023-08-06T02:25:32;3.13;;;2.92;;
5981;SDS011;3018;48.730;9.336;2023-08-06T02:27:58;2.65;;;2.45;;
5981;SDS011;3018;48.730;9.336;2023-08-06T02:30:26;3.47;;;2.67;;
5981;SDS011;3018;48.730;9.336;2023-08-06T02:32:52;2.92;;;2.70;;
5981;SDS011;3018;48.730;9.336;2023-08-06T02:35:18;2.25;;;2.15;;
5981;SDS011;3018;48.730;9.336;2023-08-06T02:37:45;2.35;;;2.25;;
5981;SDS011;3018;48.730;9.336;2023-08-06T02:40:11;2.08;;;2.03;;
5981;SDS011;3018;48.730;9.336;2023-08-06T02:42:37;2.38;;;1.90;;
5981;SDS011;3018;48.730;9.336;2023-08-06T02:45:04;2.47;;;2.28;;
5981;SDS011;3018;48.730;9.336;2023-08-06T02:47:31;3.03;;;2.15;;
5981;SDS011;3018;48.730;9.336;2023-08-06T02:49:58;2.38;;;2.22;;
5981;SDS011;3018;48.730;9.336;2023-08-06T02:52:24;2.00;;;1.95;;
5981;SDS011;3018;48.730;9.336;2023-08-06T02:54:50;4.03;;;2.67;;
5981;SDS011;3018;48.730;9.336;2023-08-06T02:57:17;2.70;;;2.50;;
5981;SDS011;3018;48.730;9.336;2023-08-06T02:59:43;2.60;;;2.40;;
5981;SDS011;3018;48.730;9.336;2023-08-06T03:02:09;3.08;;;2.78;;
5981;SDS011;3018;48.730;9.336;2023-08-06T03:04:37;3.00;;;2.80;;
5981;SDS011;3018;48.730;9.336;2023-08-06T03:07:03;3.13;;;2.90;;
5981;SDS011;3018;48.730;9.336;2023-08-06T03:09:29;2.95;;;2.75;;
5981;SDS011;3018;48.730;9.336;2023-08-06T03:11:56;3.80;;;2.90;;
5981;SDS011;3018;48.730;9.336;2023-08-06T03:14:22;3.00;;;2.85;;
5981;SDS011;3018;48.730;9.336;2023-08-06T03:16:48;3.55;;;3.15;;
5981;SDS011;3018;48.730;9.336;2023-08-06T03:19:14;4.05;;;2.90;;
5981;SDS011;3018;48.730;9.336;2023-08-06T03:21:42;3.65;;;3.45;;
5981;SDS011;3018;48.730;9.336;2023-08-06T03:24:08;3.35;;;3.15;;
5981;SDS011;3018;48.730;9.336;2023-08-06T03:26:34;3.40;;;3.30;;
5981;SDS011;3018;48.730;9.336;2023-08-06T03:29:01;3.33;;;3.13;;
5981;SDS011;3018;48.730;9.336;2023-08-06T03:31:27;3.25;;;2.95;;
5981;SDS011;3018;48.730;9.336;2023-08-06T03:33:53;3.10;;;2.97;;
5981;SDS011;3018;48.730;9.336;2023-08-06T03:36:20;3.40;;;3.10;;
5981;SDS011;3018;48.730;9.336;2023-08-06T03:38:48;3.83;;;3.55;;
5981;SDS011;3018;48.730;9.336;2023-08-06T03:41:14;4.95;;;3.13;;
5981;SDS011;3018;48.730;9.336;2023-08-06T03:43:40;3.33;;;3.03;;
5981;SDS011;3018;48.730;9.336;2023-08-06T03:46:06;2.95;;;2.80;;
5981;SDS011;3018;48.730;9.336;2023-08-06T03:48:33;3.88;;;3.05;;
5981;SDS011;3018;48.730;9.336;2023-08-06T03:50:59;3.08;;;2.97;;
5981;SDS011;3018;48.730;9.336;2023-08-06T03:53:27;3.60;;;2.70;;
5981;SDS011;3018;48.730;9.336;2023-08-06T03:55:54;3.17;;;2.55;;
5981;SDS011;3018;48.730;9.336;2023-08-06T03:58:24;3.42;;;2.53;;
5981;SDS011;3018;48.730;9.336;2023-08-06T04:00:57;2.47;;;1.98;;
5981;SDS011;3018;48.730;9.336;2023-08-06T04:03:23;2.30;;;2.20;;
5981;SDS011;3018;48.730;9.336;2023-08-06T04:05:49;2.40;;;2.30;;
5981;SDS011;3018;48.730;9.336;2023-08-06T04:08:15;2.45;;;2.25;;
5981;SDS011;3018;48.730;9.336;2023-08-06T04:10:42;2.42;;;2.33;;
5981;SDS011;3018;48.730;9.336;2023-08-06T04:13:09;2.92;;;2.22;;
5981;SDS011;3018;48.730;9.336;2023-08-06T04:15:35;2.40;;;2.22;;
5981;SDS011;3018;48.730;9.336;2023-08-06T04:18:02;2.20;;;2.00;;
5981;SDS011;3018;48.730;9.336;2023-08-06T04:20:28;2.67;;;2.10;;
5981;SDS011;3018;48.730;9.336;2023-08-06T04:22:54;5.45;;;2.40;;
5981;SDS011;3018;48.730;9.336;2023-08-06T04:25:21;2.30;;;2.10;;
5981;SDS011;3018;48.730;9.336;2023-08-06T04:27:48;4.72;;;2.22;;
5981;SDS011;3018;48.730;9.336;2023-08-06T04:30:16;5.03;;;2.17;;
5981;SDS011;3018;48.730;9.336;2023-08-06T04:32:42;2.28;;;2.08;;
5981;SDS011;3018;48.730;9.336;2023-08-06T04:35:08;2.20;;;2.03;;
5981;SDS011;3018;48.730;9.336;2023-08-06T04:37:35;1.80;;;1.70;;
5981;SDS011;3018;48.730;9.336;2023-08-06T04:40:01;1.80;;;1.70;;
5981;SDS011;3018;48.730;9.336;2023-08-06T04:42:27;2.13;;;2.03;;
5981;SDS011;3018;48.730;9.336;2023-08-06T04:44:53;2.10;;;2.00;;
5981;SDS011;3018;48.730;9.336;2023-08-06T04:47:21;2.08;;;1.98;;
5981;SDS011;3018;48.730;9.336;2023-08-06T04:49:47;3.42;;;1.58;;
5981;SDS011;3018;48.730;9.336;2023-08-06T04:52:13;2.03;;;1.90;;
5981;SDS011;3018;48.730;9.336;2023-08-06T04:54:40;3.88;;;2.10;;
5981;SDS011;3018;48.730;9.336;2023-08-06T04:57:06;1.98;;;1.80;;
5981;SDS011;3018;48.730;9.336;2023-08-06T04:59:32;1.52;;;1.40;;
5981;SDS011;3018;48.730;9.336;2023-08-06T05:01:58;4.15;;;1.60;;
5981;SDS011;3018;48.730;9.336;2023-08-06T05:04:26;2.75;;;1.40;;
5981;SDS011;3018;48.730;9.336;2023-08-06T05:06:52;0.98;;;0.93;;
5981;SDS011;3018;48.730;9.336;2023-08-06T05:09:19;1.02;;;1.02;;
5981;SDS011;3018;48.730;9.336;2023-08-06T05:11:46;1.45;;;1.35;;
5981;SDS011;3018;48.730;9.336;2023-08-06T05:14:12;2.88;;;1.02;;
5981;SDS011;3018;48.730;9.336;2023-08-06T05:16:38;1.25;;;1.13;;
5981;SDS011;3018;48.730;9.336;2023-08-06T05:19:05;1.67;;;1.00;;
5981;SDS011;3018;48.730;9.336;2023-08-06T05:21:32;2.15;;;1.00;;
5981;SDS011;3018;48.730;9.336;2023-08-06T05:23:58;3.55;;;0.90;;
5981;SDS011;3018;48.730;9.336;2023-08-06T05:26:25;2.75;;;1.00;;
5981;SDS011;3018;48.730;9.336;2023-08-06T05:28:51;1.10;;;0.95;;
5981;SDS011;3018;48.730;9.336;2023-08-06T05:31:17;1.90;;;0.80;;
5981;SDS011;3018;48.730;9.336;2023-08-06T05:33:43;1.10;;;0.60;;
5981;SDS011;3018;48.730;9.336;2023-08-06T05:36:10;0.93;;;0.70;;
5981;SDS011;3018;48.730;9.336;2023-08-06T05:38:37;1.90;;;0.95;;
5981;SDS011;3018;48.730;9.336;2023-08-06T05:41:04;0.70;;;0.70;;
5981;SDS011;3018;48.730;9.336;2023-08-06T05:43:30;2.40;;;0.55;;
5981;SDS011;3018;48.730;9.336;2023-08-06T05:45:56;2.33;;;0.70;;
5981;SDS011;3018;48.730;9.336;2023-08-06T05:48:22;4.22;;;0.80;;
5981;SDS011;3018;48.730;9.336;2023-08-06T05:50:49;0.57;;;0.57;;
5981;SDS011;3018;48.730;9.336;2023-08-06T05:53:16;1.17;;;0.70;;
5981;SDS011;3018;48.730;9.336;2023-08-06T05:55:44;1.63;;;0.70;;
5981;SDS011;3018;48.730;9.336;2023-08-06T05:58:10;1.08;;;0.80;;
5981;SDS011;3018;48.730;9.336;2023-08-06T06:00:37;2.78;;;0.80;;
5981;SDS011;3018;48.730;9.336;2023-08-06T06:03:03;1.33;;;0.68;;
5981;SDS011;3018;48.730;9.336;2023-08-06T06:05:29;2.28;;;0.60;;
5981;SDS011;3018;48.730;9.336;2023-08-06T06:07:55;1.10;;;0.60;;
5981;SDS011;3018;48.730;9.336;2023-08-06T06:10:22;0.77;;;0.70;;
5981;SDS011;3018;48.730;9.336;2023-08-06T06:12:50;3.42;;;0.80;;
5981;SDS011;3018;48.730;9.336;2023-08-06T06:15:16;0.60;;;0.60;;
5981;SDS011;3018;48.730;9.336;2023-08-06T06:17:42;6.00;;;0.77;;
5981;SDS011;3018;48.730;9.336;2023-08-06T06:20:08;1.30;;;0.60;;
5981;SDS011;3018;48.730;9.336;2023-08-06T06:22:35;1.35;;;0.77;;
5981;SDS011;3018;48.730;9.336;2023-08-06T06:25:01;1.50;;;0.70;;
5981;SDS011;3018;48.730;9.336;2023-08-06T06:27:27;1.17;;;0.60;;
5981;SDS011;3018;48.730;9.336;2023-08-06T06:29:55;1.48;;;0.70;;
5981;SDS011;3018;48.730;9.336;2023-08-06T06:32:21;4.88;;;0.82;;
5981;SDS011;3018;48.730;9.336;2023-08-06T06:34:48;2.55;;;0.80;;
5981;SDS011;3018;48.730;9.336;2023-08-06T06:37:14;1.65;;;0.57;;
5981;SDS011;3018;48.730;9.336;2023-08-06T06:39:40;0.47;;;0.47;;
5981;SDS011;3018;48.730;9.336;2023-08-06T06:42:06;1.83;;;0.63;;
5981;SDS011;3018;48.730;9.336;2023-08-06T06:44:33;2.08;;;0.70;;
5981;SDS011;3018;48.730;9.336;2023-08-06T06:47:00;0.65;;;0.43;;
5981;SDS011;3018;48.730;9.336;2023-08-06T06:49:26;0.93;;;0.50;;
5981;SDS011;3018;48.730;9.336;2023-08-06T06:51:53;1.92;;;0.35;;
5981;SDS011;3018;48.730;9.336;2023-08-06T06:54:19;1.83;;;0.50;;
5981;SDS011;3018;48.730;9.336;2023-08-06T06:56:45;1.23;;;0.60;;
5981;SDS011;3018;48.730;9.336;2023-08-06T06:59:11;2.03;;;0.55;;
5981;SDS011;3018;48.730;9.336;2023-08-06T07:01:38;1.30;;;0.50;;
5981;SDS011;3018;48.730;9.336;2023-08-06T07:04:05;0.47;;;0.47;;
5981;SDS011;3018;48.730;9.336;2023-08-06T07:06:32;1.60;;;1.00;;
5981;SDS011;3018;48.730;9.336;2023-08-06T07:08:58;0.70;;;0.70;;
5981;SDS011;3018;48.730;9.336;2023-08-06T07:11:24;4.53;;;0.82;;
5981;SDS011;3018;48.730;9.336;2023-08-06T07:13:55;0.65;;;0.50;;
5981;SDS011;3018;48.730;9.336;2023-08-06T07:16:21;0.47;;;0.47;;
5981;SDS011;3018;48.730;9.336;2023-08-06T07:18:48;1.40;;;0.60;;
5981;SDS011;3018;48.730;9.336;2023-08-06T07:21:15;0.82;;;0.50;;
5981;SDS011;3018;48.730;9.336;2023-08-06T07:23:42;0.50;;;0.40;;
5981;SDS011;3018;48.730;9.336;2023-08-06T07:26:08;0.30;;;0.30;;
5981;SDS011;3018;48.730;9.336;2023-08-06T07:28:34;0.90;;;0.30;;
5981;SDS011;3018;48.730;9.336;2023-08-06T07:31:02;0.22;;;0.20;;
5981;SDS011;3018;48.730;9.336;2023-08-06T07:33:28;0.85;;;0.30;;
5981;SDS011;3018;48.730;9.336;2023-08-06T07:35:54;1.60;;;0.35;;
5981;SDS011;3018;48.730;9.336;2023-08-06T07:38:22;0.98;;;0.47;;
5981;SDS011;3018;48.730;9.336;2023-08-06T07:40:48;0.50;;;0.30;;
5981;SDS011;3018;48.730;9.336;2023-08-06T07:43:15;0.88;;;0.40;;
5981;SDS011;3018;48.730;9.336;2023-08-06T07:45:41;0.30;;;0.30;;
5981;SDS011;3018;48.730;9.336;2023-08-06T07:48:07;0.20;;;0.20;;
5981;SDS011;3018;48.730;9.336;2023-08-06T07:50:34;0.20;;;0.20;;
5981;SDS011;3018;48.730;9.336;2023-08-06T07:53:00;0.50;;;0.20;;
5981;SDS011;3018;48.730;9.336;2023-08-06T07:55:27;0.82;;;0.30;;
5981;SDS011;3018;48.730;9.336;2023-08-06T07:57:54;0.47;;;0.20;;
5981;SDS011;3018;48.730;9.336;2023-08-06T08:00:20;0.82;;;0.30;;
5981;SDS011;3018;48.730;9.336;2023-08-06T08:02:46;0.52;;;0.20;;
5981;SDS011;3018;48.730;9.336;2023-08-06T08:05:12;0.63;;;0.32;;
5981;SDS011;3018;48.730;9.336;2023-08-06T08:07:39;0.80;;;0.20;;
5981;SDS011;3018;48.730;9.336;2023-08-06T08:10:06;0.15;;;0.10;;
5981;SDS011;3018;48.730;9.336;2023-08-06T08:12:34;1.13;;;0.28;;
5981;SDS011;3018;48.730;9.336;2023-08-06T08:15:00;0.80;;;0.10;;
5981;SDS011;3018;48.730;9.336;2023-08-06T08:17:26;1.02;;;0.10;;
5981;SDS011;3018;48.730;9.336;2023-08-06T08:19:52;0.40;;;0.10;;
5981;SDS011;3018;48.730;9.336;2023-08-06T08:22:19;0.13;;;0.10;;
5981;SDS011;3018;48.730;9.336;2023-08-06T08:24:45;0.10;;;0.10;;
5981;SDS011;3018;48.730;9.336;2023-08-06T08:27:11;0.95;;;0.10;;
5981;SDS011;3018;48.730;9.336;2023-08-06T08:29:39;2.53;;;0.10;;
5981;SDS011;3018;48.730;9.336;2023-08-06T08:32:05;0.57;;;0.32;;
5981;SDS011;3018;48.730;9.336;2023-08-06T08:34:32;0.20;;;0.20;;
5981;SDS011;3018;48.730;9.336;2023-08-06T08:36:58;2.85;;;0.20;;
5981;SDS011;3018;48.730;9.336;2023-08-06T08:39:24;0.35;;;0.20;;
5981;SDS011;3018;48.730;9.336;2023-08-06T08:41:51;0.38;;;0.10;;
5981;SDS011;3018;48.730;9.336;2023-08-06T08:44:18;0.10;;;0.10;;
5981;SDS011;3018;48.730;9.336;2023-08-06T08:46:45;1.08;;;0.20;;
5981;SDS011;3018;48.730;9.336;2023-08-06T08:49:13;1.00;;;0.20;;
5981;SDS011;3018;48.730;9.336;2023-08-06T08:51:39;0.15;;;0.08;;
5981;SDS011;3018;48.730;9.336;2023-08-06T08:54:06;2.78;;;0.10;;
5981;SDS011;3018;48.730;9.336;2023-08-06T08:56:33;0.20;;;0.10;;
5981;SDS011;3018;48.730;9.336;2023-08-06T08:58:59;0.30;;;0.30;;
5981;SDS011;3018;48.730;9.336;2023-08-06T09:01:26;0.35;;;0.10;;
5981;SDS011;3018;48.730;9.336;2023-08-06T09:03:54;1.55;;;0.22;;
5981;SDS011;3018;48.730;9.336;2023-08-06T09:06:21;0.70;;;0.20;;
5981;SDS011;3018;48.730;9.336;2023-08-06T09:08:50;1.67;;;0.30;;
5981;SDS011;3018;48.730;9.336;2023-08-06T09:11:17;0.30;;;0.20;;
5981;SDS011;3018;48.730;9.336;2023-08-06T09:13:45;1.65;;;0.20;;
5981;SDS011;3018;48.730;9.336;2023-08-06T09:16:11;0.20;;;0.10;;
5981;SDS011;3018;48.730;9.336;2023-08-06T09:18:38;0.10;;;0.10;;
5981;SDS011;3018;48.730;9.336;2023-08-06T09:21:06;0.20;;;0.20;;
5981;SDS011;3018;48.730;9.336;2023-08-06T09:23:39;0.10;;;0.10;;
5981;SDS011;3018;48.730;9.336;2023-08-06T09:26:05;0.30;;;0.20;;
5981;SDS011;3018;48.730;9.336;2023-08-06T09:28:36;0.10;;;0.10;;
5981;SDS011;3018;48.730;9.336;2023-08-06T09:31:02;0.10;;;0.10;;
5981;SDS011;3018;48.730;9.336;2023-08-06T09:33:29;0.00;;;0.00;;
5981;SDS011;3018;48.730;9.336;2023-08-06T09:35:55;0.32;;;0.20;;
5981;SDS011;3018;48.730;9.336;2023-08-06T09:38:23;0.63;;;0.10;;
5981;SDS011;3018;48.730;9.336;2023-08-06T09:40:49;0.10;;;0.10;;
5981;SDS011;3018;48.730;9.336;2023-08-06T09:43:15;0.20;;;0.20;;
5981;SDS011;3018;48.730;9.336;2023-08-06T09:45:45;0.30;;;0.22;;
5981;SDS011;3018;48.730;9.336;2023-08-06T09:48:11;0.05;;;0.05;;
5981;SDS011;3018;48.730;9.336;2023-08-06T09:50:37;0.10;;;0.10;;
5981;SDS011;3018;48.730;9.336;2023-08-06T09:53:04;2.47;;;0.20;;
5981;SDS011;3018;48.730;9.336;2023-08-06T09:55:33;0.20;;;0.20;;
5981;SDS011;3018;48.730;9.336;2023-08-06T09:57:59;0.20;;;0.20;;
5981;SDS011;3018;48.730;9.336;2023-08-06T10:00:26;0.10;;;0.10;;
5981;SDS011;3018;48.730;9.336;2023-08-06T10:02:53;0.10;;;0.10;;
5981;SDS011;3018;48.730;9.336;2023-08-06T10:05:21;0.38;;;0.22;;
5981;SDS011;3018;48.730;9.336;2023-08-06T10:07:47;0.85;;;0.10;;
5981;SDS011;3018;48.730;9.336;2023-08-06T10:10:15;1.75;;;0.13;;
5981;SDS011;3018;48.730;9.336;2023-08-06T10:12:44;0.10;;;0.10;;
5981;SDS011;3018;48.730;9.336;2023-08-06T10:15:12;0.05;;;0.05;;
5981;SDS011;3018;48.730;9.336;2023-08-06T10:17:39;0.10;;;0.10;;
5981;SDS011;3018;48.730;9.336;2023-08-06T10:20:07;0.10;;;0.10;;
5981;SDS011;3018;48.730;9.336;2023-08-06T10:22:34;0.95;;;0.10;;
5981;SDS011;3018;48.730;9.336;2023-08-06T10:25:01;0.20;;;0.13;;
5981;SDS011;3018;48.730;9.336;2023-08-06T10:27:30;0.55;;;0.00;;
5981;SDS011;3018;48.730;9.336;2023-08-06T10:30:08;0.20;;;0.20;;
5981;SDS011;3018;48.730;9.336;2023-08-06T10:32:46;0.22;;;0.22;;
5981;SDS011;3018;48.730;9.336;2023-08-06T10:35:27;0.57;;;0.30;;
5981;SDS011;3018;48.730;9.336;2023-08-06T10:37:54;0.30;;;0.30;;
5981;SDS011;3018;48.730;9.336;2023-08-06T10:40:23;2.75;;;0.20;;
5981;SDS011;3018;48.730;9.336;2023-08-06T10:42:51;0.20;;;0.10;;
5981;SDS011;3018;48.730;9.336;2023-08-06T10:45:19;0.57;;;0.20;;
5981;SDS011;3018;48.730;9.336;2023-08-06T10:47:45;0.10;;;0.10;;
5981;SDS011;3018;48.730;9.336;2023-08-06T10:50:12;0.73;;;0.20;;
5981;SDS011;3018;48.730;9.336;2023-08-06T10:52:42;0.35;;;0.10;;
5981;SDS011;3018;48.730;9.336;2023-08-06T10:55:09;0.43;;;0.30;;
5981;SDS011;3018;48.730;9.336;2023-08-06T10:57:36;0.25;;;0.20;;
5981;SDS011;3018;48.730;9.336;2023-08-06T11:00:03;0.75;;;0.52;;
5981;SDS011;3018;48.730;9.336;2023-08-06T11:02:32;0.43;;;0.20;;
5981;SDS011;3018;48.730;9.336;2023-08-06T11:05:04;0.32;;;0.30;;
5981;SDS011;3018;48.730;9.336;2023-08-06T11:07:30;2.13;;;0.15;;
5981;SDS011;3018;48.730;9.336;2023-08-06T11:10:00;0.85;;;0.08;;
5981;SDS011;3018;48.730;9.336;2023-08-06T11:12:26;0.10;;;0.10;;
5981;SDS011;3018;48.730;9.336;2023-08-06T11:14:53;1.40;;;0.38;;
5981;SDS011;3018;48.730;9.336;2023-08-06T11:17:20;0.43;;;0.30;;
5981;SDS011;3018;48.730;9.336;2023-08-06T11:19:48;0.30;;;0.30;;
5981;SDS011;3018;48.730;9.336;2023-08-06T11:22:15;1.40;;;0.35;;
5981;SDS011;3018;48.730;9.336;2023-08-06T11:24:42;0.10;;;0.10;;
5981;SDS011;3018;48.730;9.336;2023-08-06T11:27:11;1.02;;;0.20;;
5981;SDS011;3018;48.730;9.336;2023-08-06T11:29:38;1.70;;;0.20;;
5981;SDS011;3018;48.730;9.336;2023-08-06T11:32:04;0.32;;;0.20;;
5981;SDS011;3018;48.730;9.336;2023-08-06T11:34:31;2.40;;;0.38;;
5981;SDS011;3018;48.730;9.336;2023-08-06T11:36:58;0.30;;;0.30;;
5981;SDS011;3018;48.730;9.336;2023-08-06T11:39:25;0.45;;;0.22;;
5981;SDS011;3018;48.730;9.336;2023-08-06T11:41:51;0.25;;;0.25;;
5981;SDS011;3018;48.730;9.336;2023-08-06T11:44:18;0.25;;;0.25;;
5981;SDS011;3018;48.730;9.336;2023-08-06T11:46:50;1.88;;;0.30;;
5981;SDS011;3018;48.730;9.336;2023-08-06T11:49:18;0.47;;;0.38;;
5981;SDS011;3018;48.730;9.336;2023-08-06T11:51:46;0.32;;;0.32;;
5981;SDS011;3018;48.730;9.336;2023-08-06T11:54:14;0.40;;;0.40;;
5981;SDS011;3018;48.730;9.336;2023-08-06T11:56:40;0.40;;;0.40;;
5981;SDS011;3018;48.730;9.336;2023-08-06T11:59:08;0.40;;;0.40;;
5981;SDS011;3018;48.730;9.336;2023-08-06T12:01:35;0.47;;;0.40;;
5981;SDS011;3018;48.730;9.336;2023-08-06T12:04:01;0.60;;;0.60;;
5981;SDS011;3018;48.730;9.336;2023-08-06T12:06:28;0.63;;;0.30;;
5981;SDS011;3018;48.730;9.336;2023-08-06T12:08:54;0.50;;;0.43;;
5981;SDS011;3018;48.730;9.336;2023-08-06T12:11:22;0.70;;;0.70;;
5981;SDS011;3018;48.730;9.336;2023-08-06T12:13:50;0.45;;;0.40;;
5981;SDS011;3018;48.730;9.336;2023-08-06T12:16:16;0.50;;;0.50;;
5981;SDS011;3018;48.730;9.336;2023-08-06T12:18:43;4.63;;;0.77;;
5981;SDS011;3018;48.730;9.336;2023-08-06T12:21:10;1.45;;;0.60;;
5981;SDS011;3018;48.730;9.336;2023-08-06T12:23:36;0.70;;;0.70;;
5981;SDS011;3018;48.730;9.336;2023-08-06T12:26:02;0.60;;;0.60;;
5981;SDS011;3018;48.730;9.336;2023-08-06T12:28:30;2.80;;;0.60;;
5981;SDS011;3018;48.730;9.336;2023-08-06T12:30:56;0.50;;;0.50;;
5981;SDS011;3018;48.730;9.336;2023-08-06T12:33:22;0.47;;;0.47;;
5981;SDS011;3018;48.730;9.336;2023-08-06T12:35:48;0.57;;;0.55;;
5981;SDS011;3018;48.730;9.336;2023-08-06T12:38:15;2.35;;;0.60;;
5981;SDS011;3018;48.730;9.336;2023-08-06T12:40:41;1.38;;;0.80;;
5981;SDS011;3018;48.730;9.336;2023-08-06T12:43:07;1.48;;;1.00;;
5981;SDS011;3018;48.730;9.336;2023-08-06T12:45:35;0.57;;;0.57;;
5981;SDS011;3018;48.730;9.336;2023-08-06T12:48:01;0.60;;;0.60;;
5981;SDS011;3018;48.730;9.336;2023-08-06T12:50:28;1.58;;;0.55;;
5981;SDS011;3018;48.730;9.336;2023-08-06T12:52:54;1.20;;;1.08;;
5981;SDS011;3018;48.730;9.336;2023-08-06T12:55:20;0.47;;;0.40;;
5981;SDS011;3018;48.730;9.336;2023-08-06T12:57:46;0.80;;;0.60;;
5981;SDS011;3018;48.730;9.336;2023-08-06T13:00:13;0.65;;;0.45;;
5981;SDS011;3018;48.730;9.336;2023-08-06T13:02:40;0.40;;;0.40;;
5981;SDS011;3018;48.730;9.336;2023-08-06T13:05:07;0.75;;;0.40;;
5981;SDS011;3018;48.730;9.336;2023-08-06T13:07:34;0.30;;;0.30;;
5981;SDS011;3018;48.730;9.336;2023-08-06T13:10:01;0.57;;;0.57;;
5981;SDS011;3018;48.730;9.336;2023-08-06T13:12:27;0.63;;;0.47;;
5981;SDS011;3018;48.730;9.336;2023-08-06T13:14:53;0.52;;;0.52;;
5981;SDS011;3018;48.730;9.336;2023-08-06T13:17:22;0.52;;;0.52;;
5981;SDS011;3018;48.730;9.336;2023-08-06T13:19:49;0.98;;;0.70;;
5981;SDS011;3018;48.730;9.336;2023-08-06T13:22:16;0.60;;;0.60;;
5981;SDS011;3018;48.730;9.336;2023-08-06T13:24:42;0.50;;;0.50;;
5981;SDS011;3018;48.730;9.336;2023-08-06T13:27:08;0.70;;;0.70;;
5981;SDS011;3018;48.730;9.336;2023-08-06T13:29:35;0.60;;;0.60;;
5981;SDS011;3018;48.730;9.336;2023-08-06T13:32:01;0.70;;;0.70;;
5981;SDS011;3018;48.730;9.336;2023-08-06T13:34:28;0.50;;;0.50;;
5981;SDS011;3018;48.730;9.336;2023-08-06T13:36:55;0.47;;;0.47;;
5981;SDS011;3018;48.730;9.336;2023-08-06T13:39:22;1.05;;;0.45;;
5981;SDS011;3018;48.730;9.336;2023-08-06T13:41:48;0.70;;;0.70;;
5981;SDS011;3018;48.730;9.336;2023-08-06T13:44:14;2.75;;;0.60;;
5981;SDS011;3018;48.730;9.336;2023-08-06T13:46:41;1.65;;;0.60;;
5981;SDS011;3018;48.730;9.336;2023-08-06T13:49:07;0.45;;;0.45;;
5981;SDS011;3018;48.730;9.336;2023-08-06T13:51:33;0.50;;;0.50;;
5981;SDS011;3018;48.730;9.336;2023-08-06T13:54:02;0.30;;;0.30;;
5981;SDS011;3018;48.730;9.336;2023-08-06T13:56:28;2.00;;;0.68;;
5981;SDS011;3018;48.730;9.336;2023-08-06T13:58:55;0.45;;;0.45;;
5981;SDS011;3018;48.730;9.336;2023-08-06T14:01:21;0.50;;;0.50;;
5981;SDS011;3018;48.730;9.336;2023-08-06T14:03:48;0.40;;;0.40;;
5981;SDS011;3018;48.730;9.336;2023-08-06T14:06:14;0.40;;;0.40;;
5981;SDS011;3018;48.730;9.336;2023-08-06T14:08:40;0.35;;;0.30;;
5981;SDS011;3018;48.730;9.336;2023-08-06T14:11:08;0.57;;;0.30;;
5981;SDS011;3018;48.730;9.336;2023-08-06T14:13:35;0.47;;;0.40;;
5981;SDS011;3018;48.730;9.336;2023-08-06T14:16:02;2.55;;;0.30;;
5981;SDS011;3018;48.730;9.336;2023-08-06T14:18:28;0.98;;;0.47;;
5981;SDS011;3018;48.730;9.336;2023-08-06T14:20:54;0.40;;;0.38;;
5981;SDS011;3018;48.730;9.336;2023-08-06T14:23:20;0.52;;;0.50;;
5981;SDS011;3018;48.730;9.336;2023-08-06T14:25:47;0.45;;;0.30;;
5981;SDS011;3018;48.730;9.336;2023-08-06T14:28:14;1.67;;;0.38;;
5981;SDS011;3018;48.730;9.336;2023-08-06T14:30:41;0.40;;;0.40;;
5981;SDS011;3018;48.730;9.336;2023-08-06T14:33:07;0.30;;;0.30;;
5981;SDS011;3018;48.730;9.336;2023-08-06T14:35:33;0.40;;;0.40;;
5981;SDS011;3018;48.730;9.336;2023-08-06T14:37:59;0.68;;;0.40;;
5981;SDS011;3018;48.730;9.336;2023-08-06T14:40:26;0.50;;;0.50;;
5981;SDS011;3018;48.730;9.336;2023-08-06T14:42:58;0.38;;;0.30;;
5981;SDS011;3018;48.730;9.336;2023-08-06T14:45:26;0.40;;;0.40;;
5981;SDS011;3018;48.730;9.336;2023-08-06T14:47:52;1.45;;;0.55;;
5981;SDS011;3018;48.730;9.336;2023-08-06T14:50:18;0.45;;;0.40;;
5981;SDS011;3018;48.730;9.336;2023-08-06T14:52:45;1.30;;;0.30;;
5981;SDS011;3018;48.730;9.336;2023-08-06T14:55:11;0.30;;;0.30;;
5981;SDS011;3018;48.730;9.336;2023-08-06T14:57:43;0.30;;;0.30;;
5981;SDS011;3018;48.730;9.336;2023-08-06T15:00:10;0.30;;;0.30;;
5981;SDS011;3018;48.730;9.336;2023-08-06T15:02:37;0.40;;;0.40;;
5981;SDS011;3018;48.730;9.336;2023-08-06T15:05:04;2.55;;;0.60;;
5981;SDS011;3018;48.730;9.336;2023-08-06T15:07:30;1.85;;;0.60;;
5981;SDS011;3018;48.730;9.336;2023-08-06T15:10:00;0.98;;;0.57;;
5981;SDS011;3018;48.730;9.336;2023-08-06T15:12:26;0.40;;;0.40;;